sensor_id;sensor_type;location;lat;lon;timestamp;temperature;humidity
40676;DHT22;26359;48.750;9.314;2024-03-02T00:00:51;6.70;99.90
40676;DHT22;26359;48.750;9.314;2024-03-02T00:03:18;6.70;99.90
40676;DHT22;26359;48.750;9.314;2024-03-02T00:05:44;6.60;99.90
40676;DHT22;26359;48.750;9.314;2024-03-02T00:08:23;6.60;99.90
40676;DHT22;26359;48.750;9.314;2024-03-02T00:10:49;6.60;99.90
40676;DHT22;26359;48.750;9.314;2024-03-02T00:13:15;6.70;99.90
40676;DHT22;26359;48.750;9.314;2024-03-02T00:18:11;6.60;99.90
40676;DHT22;26359;48.750;9.314;2024-03-02T00:20:37;6.60;99.90
40676;DHT22;26359;48.750;9.314;2024-03-02T00:23:04;6.60;99.90
40676;DHT22;26359;48.750;9.314;2024-03-02T00:25:53;6.60;99.90
40676;DHT22;26359;48.750;9.314;2024-03-02T00:30:56;6.60;99.90
40676;DHT22;26359;48.750;9.314;2024-03-02T00:33:23;6.70;99.90
40676;DHT22;26359;48.750;9.314;2024-03-02T00:35:49;6.60;99.90
40676;DHT22;26359;48.750;9.314;2024-03-02T00:38:15;6.70;99.90
40676;DHT22;26359;48.750;9.314;2024-03-02T00:40:44;6.70;99.90
40676;DHT22;26359;48.750;9.314;2024-03-02T00:46:03;6.80;99.90
40676;DHT22;26359;48.750;9.314;2024-03-02T00:48:29;6.70;99.90
40676;DHT22;26359;48.750;9.314;2024-03-02T00:50:57;6.70;99.90
40676;DHT22;26359;48.750;9.314;2024-03-02T00:53:24;6.70;99.90
40676;DHT22;26359;48.750;9.314;2024-03-02T00:55:51;6.70;99.90
40676;DHT22;26359;48.750;9.314;2024-03-02T00:58:17;6.70;99.90
40676;DHT22;26359;48.750;9.314;2024-03-02T01:00:42;6.70;99.90
40676;DHT22;26359;48.750;9.314;2024-03-02T01:03:08;6.70;99.90
40676;DHT22;26359;48.750;9.314;2024-03-02T01:05:33;6.70;99.90
40676;DHT22;26359;48.750;9.314;2024-03-02T01:08:00;6.70;99.90
40676;DHT22;26359;48.750;9.314;2024-03-02T01:10:25;6.70;99.90
40676;DHT22;26359;48.750;9.314;2024-03-02T01:12:51;6.70;99.90
40676;DHT22;26359;48.750;9.314;2024-03-02T01:15:17;6.70;99.90
40676;DHT22;26359;48.750;9.314;2024-03-02T01:17:42;6.70;99.90
40676;DHT22;26359;48.750;9.314;2024-03-02T01:20:08;6.70;99.90
40676;DHT22;26359;48.750;9.314;2024-03-02T01:22:35;6.70;99.90
40676;DHT22;26359;48.750;9.314;2024-03-02T01:25:01;6.70;99.90
40676;DHT22;26359;48.750;9.314;2024-03-02T01:27:27;6.70;99.90
40676;DHT22;26359;48.750;9.314;2024-03-02T01:29:52;6.70;99.90
40676;DHT22;26359;48.750;9.314;2024-03-02T01:32:18;6.70;99.90
40676;DHT22;26359;48.750;9.314;2024-03-02T01:34:43;6.70;99.90
40676;DHT22;26359;48.750;9.314;2024-03-02T01:37:09;6.60;99.90
40676;DHT22;26359;48.750;9.314;2024-03-02T01:39:35;6.60;99.90
40676;DHT22;26359;48.750;9.314;2024-03-02T01:42:01;6.60;99.90
40676;DHT22;26359;48.750;9.314;2024-03-02T01:44:26;6.60;99.90
40676;DHT22;26359;48.750;9.314;2024-03-02T01:46:52;6.60;99.90
40676;DHT22;26359;48.750;9.314;2024-03-02T01:49:18;6.60;99.90
40676;DHT22;26359;48.750;9.314;2024-03-02T01:51:44;6.60;99.90
40676;DHT22;26359;48.750;9.314;2024-03-02T01:54:09;6.60;99.90
40676;DHT22;26359;48.750;9.314;2024-03-02T01:56:35;6.60;99.90
40676;DHT22;26359;48.750;9.314;2024-03-02T01:59:01;6.60;99.90
40676;DHT22;26359;48.750;9.314;2024-03-02T02:01:27;6.60;99.90
40676;DHT22;26359;48.750;9.314;2024-03-02T02:03:52;6.60;99.90
40676;DHT22;26359;48.750;9.314;2024-03-02T02:06:18;6.60;99.90
40676;DHT22;26359;48.750;9.314;2024-03-02T02:08:43;6.60;99.90
40676;DHT22;26359;48.750;9.314;2024-03-02T02:11:09;6.60;99.90
40676;DHT22;26359;48.750;9.314;2024-03-02T02:13:35;6.50;99.90
40676;DHT22;26359;48.750;9.314;2024-03-02T02:16:07;6.50;99.90
40676;DHT22;26359;48.750;9.314;2024-03-02T02:18:33;6.50;99.90
40676;DHT22;26359;48.750;9.314;2024-03-02T02:20:59;6.50;99.90
40676;DHT22;26359;48.750;9.314;2024-03-02T02:23:24;6.40;99.90
40676;DHT22;26359;48.750;9.314;2024-03-02T02:25:50;6.40;99.90
40676;DHT22;26359;48.750;9.314;2024-03-02T02:28:15;6.40;99.90
40676;DHT22;26359;48.750;9.314;2024-03-02T02:30:41;6.40;99.90
40676;DHT22;26359;48.750;9.314;2024-03-02T02:33:08;6.30;99.90
40676;DHT22;26359;48.750;9.314;2024-03-02T02:35:33;6.30;99.90
40676;DHT22;26359;48.750;9.314;2024-03-02T02:37:59;6.20;99.90
40676;DHT22;26359;48.750;9.314;2024-03-02T02:40:24;6.10;99.90
40676;DHT22;26359;48.750;9.314;2024-03-02T02:42:50;6.00;99.90
40676;DHT22;26359;48.750;9.314;2024-03-02T02:45:17;6.10;99.90
40676;DHT22;26359;48.750;9.314;2024-03-02T02:47:43;6.10;99.90
40676;DHT22;26359;48.750;9.314;2024-03-02T02:50:10;6.00;99.90
40676;DHT22;26359;48.750;9.314;2024-03-02T02:52:37;5.90;99.90
40676;DHT22;26359;48.750;9.314;2024-03-02T02:55:05;5.80;99.90
40676;DHT22;26359;48.750;9.314;2024-03-02T02:57:34;5.70;99.90
40676;DHT22;26359;48.750;9.314;2024-03-02T03:00:12;5.70;99.90
40676;DHT22;26359;48.750;9.314;2024-03-02T03:02:42;5.80;99.90
40676;DHT22;26359;48.750;9.314;2024-03-02T03:05:09;5.80;99.90
40676;DHT22;26359;48.750;9.314;2024-03-02T03:07:35;5.70;99.90
40676;DHT22;26359;48.750;9.314;2024-03-02T03:10:02;5.70;99.90
40676;DHT22;26359;48.750;9.314;2024-03-02T03:12:28;5.60;99.90
40676;DHT22;26359;48.750;9.314;2024-03-02T03:14:54;5.60;99.90
40676;DHT22;26359;48.750;9.314;2024-03-02T03:17:21;5.60;99.90
40676;DHT22;26359;48.750;9.314;2024-03-02T03:19:46;5.60;99.90
40676;DHT22;26359;48.750;9.314;2024-03-02T03:22:12;5.60;99.90
40676;DHT22;26359;48.750;9.314;2024-03-02T03:24:38;5.60;99.90
40676;DHT22;26359;48.750;9.314;2024-03-02T03:27:04;5.60;99.90
40676;DHT22;26359;48.750;9.314;2024-03-02T03:29:29;5.60;99.90
40676;DHT22;26359;48.750;9.314;2024-03-02T03:31:55;5.60;99.90
40676;DHT22;26359;48.750;9.314;2024-03-02T03:34:20;5.60;99.90
40676;DHT22;26359;48.750;9.314;2024-03-02T03:36:46;5.60;99.90
40676;DHT22;26359;48.750;9.314;2024-03-02T03:39:11;5.60;99.90
40676;DHT22;26359;48.750;9.314;2024-03-02T03:41:37;5.50;99.90
40676;DHT22;26359;48.750;9.314;2024-03-02T03:44:03;5.40;99.90
40676;DHT22;26359;48.750;9.314;2024-03-02T03:46:29;5.50;99.90
40676;DHT22;26359;48.750;9.314;2024-03-02T03:48:54;5.50;99.90
40676;DHT22;26359;48.750;9.314;2024-03-02T03:51:21;5.40;99.90
40676;DHT22;26359;48.750;9.314;2024-03-02T03:53:48;5.30;99.90
40676;DHT22;26359;48.750;9.314;2024-03-02T03:56:14;5.20;99.90
40676;DHT22;26359;48.750;9.314;2024-03-02T03:58:39;5.30;99.90
40676;DHT22;26359;48.750;9.314;2024-03-02T04:01:05;5.30;99.90
40676;DHT22;26359;48.750;9.314;2024-03-02T04:03:30;5.20;99.90
40676;DHT22;26359;48.750;9.314;2024-03-02T04:05:56;5.20;99.90
40676;DHT22;26359;48.750;9.314;2024-03-02T04:08:21;5.20;99.90
40676;DHT22;26359;48.750;9.314;2024-03-02T04:10:47;5.20;99.90
40676;DHT22;26359;48.750;9.314;2024-03-02T04:13:12;5.20;99.90
40676;DHT22;26359;48.750;9.314;2024-03-02T04:15:38;5.20;99.90
40676;DHT22;26359;48.750;9.314;2024-03-02T04:18:04;5.20;99.90
40676;DHT22;26359;48.750;9.314;2024-03-02T04:20:29;5.20;99.90
40676;DHT22;26359;48.750;9.314;2024-03-02T04:22:55;5.20;99.90
40676;DHT22;26359;48.750;9.314;2024-03-02T04:25:21;5.20;99.90
40676;DHT22;26359;48.750;9.314;2024-03-02T04:27:46;5.20;99.90
40676;DHT22;26359;48.750;9.314;2024-03-02T04:30:12;5.20;99.90
40676;DHT22;26359;48.750;9.314;2024-03-02T04:32:38;5.10;99.90
40676;DHT22;26359;48.750;9.314;2024-03-02T04:35:04;5.10;99.90
40676;DHT22;26359;48.750;9.314;2024-03-02T04:37:31;5.20;99.90
40676;DHT22;26359;48.750;9.314;2024-03-02T04:39:57;5.20;99.90
40676;DHT22;26359;48.750;9.314;2024-03-02T04:42:22;5.10;99.90
40676;DHT22;26359;48.750;9.314;2024-03-02T04:44:48;5.00;99.90
40676;DHT22;26359;48.750;9.314;2024-03-02T04:47:14;4.90;99.90
40676;DHT22;26359;48.750;9.314;2024-03-02T04:49:39;5.00;99.90
40676;DHT22;26359;48.750;9.314;2024-03-02T04:52:05;4.90;99.90
40676;DHT22;26359;48.750;9.314;2024-03-02T04:54:30;4.90;99.90
40676;DHT22;26359;48.750;9.314;2024-03-02T04:56:56;4.90;99.90
40676;DHT22;26359;48.750;9.314;2024-03-02T04:59:21;4.90;99.90
40676;DHT22;26359;48.750;9.314;2024-03-02T05:01:47;4.90;99.90
40676;DHT22;26359;48.750;9.314;2024-03-02T05:04:13;5.00;99.90
40676;DHT22;26359;48.750;9.314;2024-03-02T05:06:39;5.00;99.90
40676;DHT22;26359;48.750;9.314;2024-03-02T05:09:06;4.90;99.90
40676;DHT22;26359;48.750;9.314;2024-03-02T05:11:31;4.90;99.90
40676;DHT22;26359;48.750;9.314;2024-03-02T05:14:03;4.80;99.90
40676;DHT22;26359;48.750;9.314;2024-03-02T05:16:29;4.80;99.90
40676;DHT22;26359;48.750;9.314;2024-03-02T05:18:54;4.80;99.90
40676;DHT22;26359;48.750;9.314;2024-03-02T05:21:20;4.80;99.90
40676;DHT22;26359;48.750;9.314;2024-03-02T05:23:46;4.80;99.90
40676;DHT22;26359;48.750;9.314;2024-03-02T05:26:11;4.90;99.90
40676;DHT22;26359;48.750;9.314;2024-03-02T05:28:38;4.80;99.90
40676;DHT22;26359;48.750;9.314;2024-03-02T05:31:04;4.70;99.90
40676;DHT22;26359;48.750;9.314;2024-03-02T05:33:30;4.70;99.90
40676;DHT22;26359;48.750;9.314;2024-03-02T05:35:58;4.70;99.90
40676;DHT22;26359;48.750;9.314;2024-03-02T05:38:24;4.60;99.90
40676;DHT22;26359;48.750;9.314;2024-03-02T05:40:49;4.60;99.90
40676;DHT22;26359;48.750;9.314;2024-03-02T05:43:14;4.50;99.90
40676;DHT22;26359;48.750;9.314;2024-03-02T05:45:40;4.50;99.90
40676;DHT22;26359;48.750;9.314;2024-03-02T05:48:07;4.50;99.90
40676;DHT22;26359;48.750;9.314;2024-03-02T05:50:33;4.50;99.90
40676;DHT22;26359;48.750;9.314;2024-03-02T05:52:58;4.50;99.90
40676;DHT22;26359;48.750;9.314;2024-03-02T05:55:24;4.40;99.90
40676;DHT22;26359;48.750;9.314;2024-03-02T05:57:50;4.40;99.90
40676;DHT22;26359;48.750;9.314;2024-03-02T06:00:34;4.40;99.90
40676;DHT22;26359;48.750;9.314;2024-03-02T06:02:59;4.40;99.90
40676;DHT22;26359;48.750;9.314;2024-03-02T06:05:25;4.40;99.90
40676;DHT22;26359;48.750;9.314;2024-03-02T06:07:51;4.50;99.90
40676;DHT22;26359;48.750;9.314;2024-03-02T06:10:16;4.50;99.90
40676;DHT22;26359;48.750;9.314;2024-03-02T06:12:43;4.40;99.90
40676;DHT22;26359;48.750;9.314;2024-03-02T06:15:09;4.40;99.90
40676;DHT22;26359;48.750;9.314;2024-03-02T06:17:37;4.30;99.90
40676;DHT22;26359;48.750;9.314;2024-03-02T06:20:04;4.30;99.90
40676;DHT22;26359;48.750;9.314;2024-03-02T06:22:29;4.30;99.90
40676;DHT22;26359;48.750;9.314;2024-03-02T06:24:55;4.40;99.90
40676;DHT22;26359;48.750;9.314;2024-03-02T06:27:20;4.90;99.90
40676;DHT22;26359;48.750;9.314;2024-03-02T06:29:46;4.90;99.90
40676;DHT22;26359;48.750;9.314;2024-03-02T06:32:11;4.90;99.90
40676;DHT22;26359;48.750;9.314;2024-03-02T06:34:37;4.80;99.90
40676;DHT22;26359;48.750;9.314;2024-03-02T06:37:03;4.70;99.90
40676;DHT22;26359;48.750;9.314;2024-03-02T06:39:28;4.60;99.90
40676;DHT22;26359;48.750;9.314;2024-03-02T06:41:54;4.60;99.90
40676;DHT22;26359;48.750;9.314;2024-03-02T06:44:19;4.50;99.90
40676;DHT22;26359;48.750;9.314;2024-03-02T06:46:46;4.40;99.90
40676;DHT22;26359;48.750;9.314;2024-03-02T06:49:12;4.40;99.90
40676;DHT22;26359;48.750;9.314;2024-03-02T06:51:37;4.50;99.90
40676;DHT22;26359;48.750;9.314;2024-03-02T06:54:03;4.50;99.90
40676;DHT22;26359;48.750;9.314;2024-03-02T06:56:28;4.50;99.90
40676;DHT22;26359;48.750;9.314;2024-03-02T06:58:54;4.60;99.90
40676;DHT22;26359;48.750;9.314;2024-03-02T07:01:19;4.70;99.90
40676;DHT22;26359;48.750;9.314;2024-03-02T07:03:48;4.70;99.90
40676;DHT22;26359;48.750;9.314;2024-03-02T07:06:13;4.60;99.90
40676;DHT22;26359;48.750;9.314;2024-03-02T07:08:39;4.50;99.90
40676;DHT22;26359;48.750;9.314;2024-03-02T07:11:04;4.50;99.90
40676;DHT22;26359;48.750;9.314;2024-03-02T07:13:30;4.50;99.90
40676;DHT22;26359;48.750;9.314;2024-03-02T07:15:55;4.60;99.90
40676;DHT22;26359;48.750;9.314;2024-03-02T07:18:36;4.70;99.90
40676;DHT22;26359;48.750;9.314;2024-03-02T07:21:16;4.70;99.90
40676;DHT22;26359;48.750;9.314;2024-03-02T07:23:42;4.80;99.90
40676;DHT22;26359;48.750;9.314;2024-03-02T07:26:08;4.90;99.90
40676;DHT22;26359;48.750;9.314;2024-03-02T07:28:34;5.00;99.90
40676;DHT22;26359;48.750;9.314;2024-03-02T07:33:25;5.10;99.90
40676;DHT22;26359;48.750;9.314;2024-03-02T07:35:51;5.20;99.90
40676;DHT22;26359;48.750;9.314;2024-03-02T07:38:16;5.30;99.90
40676;DHT22;26359;48.750;9.314;2024-03-02T07:40:42;5.40;99.90
40676;DHT22;26359;48.750;9.314;2024-03-02T07:43:08;5.50;99.90
40676;DHT22;26359;48.750;9.314;2024-03-02T07:45:34;5.60;99.90
40676;DHT22;26359;48.750;9.314;2024-03-02T07:48:01;5.70;99.90
40676;DHT22;26359;48.750;9.314;2024-03-02T07:50:29;5.80;99.90
40676;DHT22;26359;48.750;9.314;2024-03-02T07:52:55;5.80;99.90
40676;DHT22;26359;48.750;9.314;2024-03-02T07:55:21;5.90;99.90
40676;DHT22;26359;48.750;9.314;2024-03-02T07:57:46;5.90;99.90
40676;DHT22;26359;48.750;9.314;2024-03-02T08:00:12;6.00;99.90
40676;DHT22;26359;48.750;9.314;2024-03-02T08:02:38;6.10;99.90
40676;DHT22;26359;48.750;9.314;2024-03-02T08:05:04;6.10;99.90
40676;DHT22;26359;48.750;9.314;2024-03-02T08:07:29;6.20;99.90
40676;DHT22;26359;48.750;9.314;2024-03-02T08:09:55;6.20;99.90
40676;DHT22;26359;48.750;9.314;2024-03-02T08:12:20;6.20;99.90
40676;DHT22;26359;48.750;9.314;2024-03-02T08:14:48;6.30;99.90
40676;DHT22;26359;48.750;9.314;2024-03-02T08:17:14;6.30;99.90
40676;DHT22;26359;48.750;9.314;2024-03-02T08:19:45;6.30;99.90
40676;DHT22;26359;48.750;9.314;2024-03-02T08:22:14;6.40;99.90
40676;DHT22;26359;48.750;9.314;2024-03-02T08:24:40;6.40;99.90
40676;DHT22;26359;48.750;9.314;2024-03-02T08:27:06;6.40;99.90
40676;DHT22;26359;48.750;9.314;2024-03-02T08:29:31;6.40;99.90
40676;DHT22;26359;48.750;9.314;2024-03-02T08:31:57;6.40;99.90
40676;DHT22;26359;48.750;9.314;2024-03-02T08:34:22;6.50;99.90
40676;DHT22;26359;48.750;9.314;2024-03-02T08:36:48;6.60;99.90
40676;DHT22;26359;48.750;9.314;2024-03-02T08:39:14;6.60;99.90
40676;DHT22;26359;48.750;9.314;2024-03-02T08:41:49;6.60;99.90
40676;DHT22;26359;48.750;9.314;2024-03-02T08:44:16;6.70;99.90
40676;DHT22;26359;48.750;9.314;2024-03-02T08:46:41;6.80;99.90
40676;DHT22;26359;48.750;9.314;2024-03-02T08:49:07;6.90;99.90
40676;DHT22;26359;48.750;9.314;2024-03-02T08:51:33;6.90;99.90
40676;DHT22;26359;48.750;9.314;2024-03-02T08:53:59;6.90;99.90
40676;DHT22;26359;48.750;9.314;2024-03-02T08:56:25;6.80;99.90
40676;DHT22;26359;48.750;9.314;2024-03-02T08:58:51;6.70;99.90
40676;DHT22;26359;48.750;9.314;2024-03-02T09:01:17;6.70;99.90
40676;DHT22;26359;48.750;9.314;2024-03-02T09:03:43;6.80;99.90
40676;DHT22;26359;48.750;9.314;2024-03-02T09:06:12;6.90;99.90
40676;DHT22;26359;48.750;9.314;2024-03-02T09:08:39;7.00;99.90
40676;DHT22;26359;48.750;9.314;2024-03-02T09:11:05;7.10;99.90
40676;DHT22;26359;48.750;9.314;2024-03-02T09:13:32;7.20;99.90
40676;DHT22;26359;48.750;9.314;2024-03-02T09:15:58;7.30;99.90
40676;DHT22;26359;48.750;9.314;2024-03-02T09:18:23;7.50;99.90
40676;DHT22;26359;48.750;9.314;2024-03-02T09:20:49;7.50;99.90
40676;DHT22;26359;48.750;9.314;2024-03-02T09:23:15;7.70;99.90
40676;DHT22;26359;48.750;9.314;2024-03-02T09:25:40;7.80;99.90
40676;DHT22;26359;48.750;9.314;2024-03-02T09:28:06;8.00;99.90
40676;DHT22;26359;48.750;9.314;2024-03-02T09:30:32;8.20;99.90
40676;DHT22;26359;48.750;9.314;2024-03-02T09:32:58;8.30;99.90
40676;DHT22;26359;48.750;9.314;2024-03-02T09:35:23;8.40;99.90
40676;DHT22;26359;48.750;9.314;2024-03-02T09:37:49;8.40;99.90
40676;DHT22;26359;48.750;9.314;2024-03-02T09:40:15;8.60;99.90
40676;DHT22;26359;48.750;9.314;2024-03-02T09:42:41;8.80;99.90
40676;DHT22;26359;48.750;9.314;2024-03-02T09:45:08;9.00;99.90
40676;DHT22;26359;48.750;9.314;2024-03-02T09:47:34;9.10;99.90
40676;DHT22;26359;48.750;9.314;2024-03-02T09:49:59;9.40;99.90
40676;DHT22;26359;48.750;9.314;2024-03-02T09:52:25;9.80;99.90
40676;DHT22;26359;48.750;9.314;2024-03-02T09:54:51;10.20;99.90
40676;DHT22;26359;48.750;9.314;2024-03-02T09:57:17;10.60;99.90
40676;DHT22;26359;48.750;9.314;2024-03-02T09:59:42;11.10;99.90
40676;DHT22;26359;48.750;9.314;2024-03-02T10:02:08;11.60;99.90
40676;DHT22;26359;48.750;9.314;2024-03-02T10:04:33;11.90;99.90
40676;DHT22;26359;48.750;9.314;2024-03-02T10:07:18;12.10;99.90
40676;DHT22;26359;48.750;9.314;2024-03-02T10:09:45;12.20;99.90
40676;DHT22;26359;48.750;9.314;2024-03-02T10:12:12;12.50;99.90
40676;DHT22;26359;48.750;9.314;2024-03-02T10:14:39;12.90;99.90
40676;DHT22;26359;48.750;9.314;2024-03-02T10:17:10;13.20;99.90
40676;DHT22;26359;48.750;9.314;2024-03-02T10:19:36;13.50;99.90
40676;DHT22;26359;48.750;9.314;2024-03-02T10:22:03;13.70;99.90
40676;DHT22;26359;48.750;9.314;2024-03-02T10:24:41;13.90;99.90
40676;DHT22;26359;48.750;9.314;2024-03-02T10:27:15;13.90;99.90
40676;DHT22;26359;48.750;9.314;2024-03-02T10:29:41;14.10;99.90
40676;DHT22;26359;48.750;9.314;2024-03-02T10:32:10;14.50;99.90
40676;DHT22;26359;48.750;9.314;2024-03-02T10:34:37;14.40;99.90
40676;DHT22;26359;48.750;9.314;2024-03-02T10:37:03;14.50;99.90
40676;DHT22;26359;48.750;9.314;2024-03-02T10:39:28;14.60;99.90
40676;DHT22;26359;48.750;9.314;2024-03-02T10:41:55;14.70;99.90
40676;DHT22;26359;48.750;9.314;2024-03-02T10:44:22;14.90;99.90
40676;DHT22;26359;48.750;9.314;2024-03-02T10:46:49;15.00;99.90
40676;DHT22;26359;48.750;9.314;2024-03-02T10:49:19;15.00;99.90
40676;DHT22;26359;48.750;9.314;2024-03-02T10:51:46;15.20;99.90
40676;DHT22;26359;48.750;9.314;2024-03-02T10:54:11;15.30;99.90
40676;DHT22;26359;48.750;9.314;2024-03-02T10:56:41;15.50;99.90
40676;DHT22;26359;48.750;9.314;2024-03-02T11:01:48;15.90;99.90
40676;DHT22;26359;48.750;9.314;2024-03-02T11:04:16;16.00;99.90
40676;DHT22;26359;48.750;9.314;2024-03-02T11:06:50;16.00;99.90
40676;DHT22;26359;48.750;9.314;2024-03-02T11:09:19;16.20;99.90
40676;DHT22;26359;48.750;9.314;2024-03-02T11:11:52;16.40;99.90
40676;DHT22;26359;48.750;9.314;2024-03-02T11:14:23;16.70;99.90
40676;DHT22;26359;48.750;9.314;2024-03-02T11:16:50;16.90;99.90
40676;DHT22;26359;48.750;9.314;2024-03-02T11:19:17;17.10;99.90
40676;DHT22;26359;48.750;9.314;2024-03-02T11:21:43;17.20;99.90
40676;DHT22;26359;48.750;9.314;2024-03-02T11:26:53;17.60;99.90
40676;DHT22;26359;48.750;9.314;2024-03-02T11:32:04;17.70;99.90
40676;DHT22;26359;48.750;9.314;2024-03-02T11:34:31;17.80;99.90
40676;DHT22;26359;48.750;9.314;2024-03-02T11:37:03;17.90;99.90
40676;DHT22;26359;48.750;9.314;2024-03-02T11:39:30;18.00;99.90
40676;DHT22;26359;48.750;9.314;2024-03-02T11:41:59;17.90;99.90
40676;DHT22;26359;48.750;9.314;2024-03-02T11:44:26;18.20;99.90
40676;DHT22;26359;48.750;9.314;2024-03-02T11:46:58;18.40;99.90
40676;DHT22;26359;48.750;9.314;2024-03-02T11:50:02;18.20;99.90
40676;DHT22;26359;48.750;9.314;2024-03-02T11:52:33;18.00;99.90
40676;DHT22;26359;48.750;9.314;2024-03-02T11:54:58;18.10;99.90
40676;DHT22;26359;48.750;9.314;2024-03-02T11:57:25;18.30;99.90
40676;DHT22;26359;48.750;9.314;2024-03-02T11:59:52;18.40;99.90
40676;DHT22;26359;48.750;9.314;2024-03-02T12:02:21;18.60;99.90
40676;DHT22;26359;48.750;9.314;2024-03-02T12:04:48;18.70;99.90
40676;DHT22;26359;48.750;9.314;2024-03-02T12:07:21;18.80;99.90
40676;DHT22;26359;48.750;9.314;2024-03-02T12:09:48;18.70;99.90
40676;DHT22;26359;48.750;9.314;2024-03-02T12:12:13;18.70;99.90
40676;DHT22;26359;48.750;9.314;2024-03-02T12:14:50;18.60;99.90
40676;DHT22;26359;48.750;9.314;2024-03-02T12:17:16;18.70;99.90
40676;DHT22;26359;48.750;9.314;2024-03-02T12:19:42;18.80;99.90
40676;DHT22;26359;48.750;9.314;2024-03-02T12:22:07;19.00;99.90
40676;DHT22;26359;48.750;9.314;2024-03-02T12:24:33;19.10;99.90
40676;DHT22;26359;48.750;9.314;2024-03-02T12:26:59;19.50;99.90
40676;DHT22;26359;48.750;9.314;2024-03-02T12:29:24;19.60;99.90
40676;DHT22;26359;48.750;9.314;2024-03-02T12:31:51;19.50;99.90
40676;DHT22;26359;48.750;9.314;2024-03-02T12:34:21;19.40;99.90
40676;DHT22;26359;48.750;9.314;2024-03-02T12:36:47;19.30;99.90
40676;DHT22;26359;48.750;9.314;2024-03-02T12:39:18;19.30;99.90
40676;DHT22;26359;48.750;9.314;2024-03-02T12:41:49;19.30;99.90
40676;DHT22;26359;48.750;9.314;2024-03-02T12:44:19;19.40;99.90
40676;DHT22;26359;48.750;9.314;2024-03-02T12:46:46;19.50;99.90
40676;DHT22;26359;48.750;9.314;2024-03-02T12:49:13;19.40;99.90
40676;DHT22;26359;48.750;9.314;2024-03-02T12:51:40;19.40;99.90
40676;DHT22;26359;48.750;9.314;2024-03-02T12:54:07;19.50;99.80
40676;DHT22;26359;48.750;9.314;2024-03-02T12:56:33;19.60;99.90
40676;DHT22;26359;48.750;9.314;2024-03-02T12:59:01;19.70;98.90
40676;DHT22;26359;48.750;9.314;2024-03-02T13:01:26;19.70;98.80
40676;DHT22;26359;48.750;9.314;2024-03-02T13:03:53;19.80;98.70
40676;DHT22;26359;48.750;9.314;2024-03-02T13:06:20;19.90;98.10
40676;DHT22;26359;48.750;9.314;2024-03-02T13:08:46;20.00;98.50
40676;DHT22;26359;48.750;9.314;2024-03-02T13:11:12;19.90;98.50
40676;DHT22;26359;48.750;9.314;2024-03-02T13:13:39;20.10;98.60
40676;DHT22;26359;48.750;9.314;2024-03-02T13:16:11;20.20;96.60
40676;DHT22;26359;48.750;9.314;2024-03-02T13:18:41;20.40;99.90
40676;DHT22;26359;48.750;9.314;2024-03-02T13:21:08;20.50;96.90
40676;DHT22;26359;48.750;9.314;2024-03-02T13:23:34;20.50;97.00
40676;DHT22;26359;48.750;9.314;2024-03-02T13:26:00;20.50;96.90
40676;DHT22;26359;48.750;9.314;2024-03-02T13:28:25;20.50;95.90
40676;DHT22;26359;48.750;9.314;2024-03-02T13:30:51;20.30;95.90
40676;DHT22;26359;48.750;9.314;2024-03-02T13:33:17;20.40;95.90
40676;DHT22;26359;48.750;9.314;2024-03-02T13:35:49;20.40;95.80
40676;DHT22;26359;48.750;9.314;2024-03-02T13:38:19;20.40;99.90
40676;DHT22;26359;48.750;9.314;2024-03-02T13:40:44;20.40;97.00
40676;DHT22;26359;48.750;9.314;2024-03-02T13:43:11;20.50;95.40
40676;DHT22;26359;48.750;9.314;2024-03-02T13:45:37;20.50;96.20
40676;DHT22;26359;48.750;9.314;2024-03-02T13:48:03;20.70;95.40
40676;DHT22;26359;48.750;9.314;2024-03-02T13:50:28;20.70;94.40
40676;DHT22;26359;48.750;9.314;2024-03-02T13:52:55;20.70;95.10
40676;DHT22;26359;48.750;9.314;2024-03-02T13:55:21;20.70;94.20
40676;DHT22;26359;48.750;9.314;2024-03-02T13:57:47;20.50;94.70
40676;DHT22;26359;48.750;9.314;2024-03-02T14:00:14;20.30;94.20
40676;DHT22;26359;48.750;9.314;2024-03-02T14:02:41;20.20;94.40
40676;DHT22;26359;48.750;9.314;2024-03-02T14:05:07;20.00;94.60
40676;DHT22;26359;48.750;9.314;2024-03-02T14:07:37;20.10;95.40
40676;DHT22;26359;48.750;9.314;2024-03-02T14:10:03;20.10;93.90
40676;DHT22;26359;48.750;9.314;2024-03-02T14:12:29;20.10;94.70
40676;DHT22;26359;48.750;9.314;2024-03-02T14:14:54;19.90;94.40
40676;DHT22;26359;48.750;9.314;2024-03-02T14:17:26;19.80;94.70
40676;DHT22;26359;48.750;9.314;2024-03-02T14:19:51;19.70;94.70
40676;DHT22;26359;48.750;9.314;2024-03-02T14:22:19;19.60;94.50
40676;DHT22;26359;48.750;9.314;2024-03-02T14:24:45;19.50;94.50
40676;DHT22;26359;48.750;9.314;2024-03-02T14:27:11;19.30;93.80
40676;DHT22;26359;48.750;9.314;2024-03-02T14:29:37;19.40;94.90
40676;DHT22;26359;48.750;9.314;2024-03-02T14:32:05;19.20;93.80
40676;DHT22;26359;48.750;9.314;2024-03-02T14:34:30;19.20;95.50
40676;DHT22;26359;48.750;9.314;2024-03-02T14:36:56;19.20;93.40
40676;DHT22;26359;48.750;9.314;2024-03-02T14:39:22;19.10;93.30
40676;DHT22;26359;48.750;9.314;2024-03-02T14:41:48;19.30;93.70
40676;DHT22;26359;48.750;9.314;2024-03-02T14:44:14;19.50;93.20
40676;DHT22;26359;48.750;9.314;2024-03-02T14:46:40;19.70;92.80
40676;DHT22;26359;48.750;9.314;2024-03-02T14:49:06;19.80;93.10
40676;DHT22;26359;48.750;9.314;2024-03-02T14:51:31;19.90;92.30
40676;DHT22;26359;48.750;9.314;2024-03-02T14:53:57;19.80;91.50
40676;DHT22;26359;48.750;9.314;2024-03-02T14:56:22;19.50;92.50
40676;DHT22;26359;48.750;9.314;2024-03-02T14:58:48;19.40;92.70
40676;DHT22;26359;48.750;9.314;2024-03-02T15:01:13;19.30;92.50
40676;DHT22;26359;48.750;9.314;2024-03-02T15:03:40;19.10;92.30
40676;DHT22;26359;48.750;9.314;2024-03-02T15:06:06;18.80;93.00
40676;DHT22;26359;48.750;9.314;2024-03-02T15:08:33;18.60;93.30
40676;DHT22;26359;48.750;9.314;2024-03-02T15:10:58;18.40;93.70
40676;DHT22;26359;48.750;9.314;2024-03-02T15:13:25;18.40;94.40
40676;DHT22;26359;48.750;9.314;2024-03-02T15:15:51;18.50;93.60
40676;DHT22;26359;48.750;9.314;2024-03-02T15:18:18;18.40;93.60
40676;DHT22;26359;48.750;9.314;2024-03-02T15:20:43;18.20;93.60
40676;DHT22;26359;48.750;9.314;2024-03-02T15:23:09;17.90;94.10
40676;DHT22;26359;48.750;9.314;2024-03-02T15:25:35;17.70;94.90
40676;DHT22;26359;48.750;9.314;2024-03-02T15:28:00;17.60;95.20
40676;DHT22;26359;48.750;9.314;2024-03-02T15:30:26;17.30;95.30
40676;DHT22;26359;48.750;9.314;2024-03-02T15:32:51;17.10;95.90
40676;DHT22;26359;48.750;9.314;2024-03-02T15:35:17;16.80;96.00
40676;DHT22;26359;48.750;9.314;2024-03-02T15:37:42;16.50;95.80
40676;DHT22;26359;48.750;9.314;2024-03-02T15:40:08;16.30;96.50
40676;DHT22;26359;48.750;9.314;2024-03-02T15:42:34;16.10;96.10
40676;DHT22;26359;48.750;9.314;2024-03-02T15:45:01;15.80;96.90
40676;DHT22;26359;48.750;9.314;2024-03-02T15:47:26;15.70;98.60
40676;DHT22;26359;48.750;9.314;2024-03-02T15:49:52;15.60;99.10
40676;DHT22;26359;48.750;9.314;2024-03-02T15:52:17;15.50;99.90
40676;DHT22;26359;48.750;9.314;2024-03-02T15:54:48;15.30;99.90